Airfield :
LOGIN :

Register | Disclaimer

   EN    FR    IT 

 










Legend :    VFR   Marginal VFR   IFR   Intensive IFR   Very Intensive IFR
Visi :
Ceiling :
>= 8 km
>= 3000ft
5 to 8 km
1000 to 3000 ft
1500m to 5 km
500 to 1000 ft
800 to 1500m
200 to 500 ft
< 800m
< 200 ft
Symbols :   Thunderstorms  Fog  Heavy snow  Heavy precipitations  Wind > 20 kt
SIGMETs :     Misc.  Thunderstorms  Icing  Turbulence  Mountain Waves  Volcanic Ashes






- Airport Elevation : 776 ft
- IATA code : RMS


ETAR - Ramstein Air Base

CURRENT METAR :
  • 180356Z AUTO 00000KT 9999 OVC042 04/01 A3012 RMK AO2 SLP208 T00440011 FZRANO

EXPIRED METARs :
  • 180256Z AUTO 00000KT 9999 OVC043 05/01 A3012 RMK AO2 SLP208 T00520008 56008 FZRANO $
  • 180156Z AUTO 00000KT 9999 OVC043 06/00 A3012 RMK AO2 SLP207 T00550001 FZRANO $

TAF TAF ETAR
Valid from the 18 at 02:00 until the 19 at 08:00 UTC


180200Z 1802/1908 VRB06KT BKN030 OVC040 QNH3011INS
BECMG 1807/1808 04009KT 9999 OVC030 QNH3008INS
TEMPO 1808/1812 8000 -RA BKN018 OVC030
BECMG 1811/1812 04012KT 8000 -SHRA BKN020 OVC030 QNH3005INS
BECMG 1817/1818 VRB06KT 9999 NSW BKN020 OVC050 QNH3000INS TX13/1813Z TN02/1901Z



MET'MAP, your aeronautical weather chart ! - Copyright ORBIFLY December 2007 - Disclaimer

ORBIFLY MET'MAP TEAM :

Programming & Development : Alexandra Zaïnal
Concept & original design : Baudouin d'Aumeries
Assistance for programming : Marc-Olivier Méhu
Technical & hardware support : Manuel Goepfert

Contact : metmap@orbifly.com




SOURCES & CREDITS :

   NOAA